createdAt,value
2019-02-09T00:01:26.627Z,99.9
2019-02-09T00:06:26.670Z,99.5
2019-02-09T00:11:26.703Z,99
2019-02-09T00:16:26.777Z,99.5
2019-02-09T00:21:26.803Z,98.6
2019-02-09T00:26:26.811Z,98.5
2019-02-09T00:31:26.942Z,98.4
2019-02-09T00:36:26.776Z,98.3
2019-02-09T00:41:26.674Z,98.7
2019-02-09T00:46:26.659Z,98.4
2019-02-09T00:51:26.470Z,97.5
2019-02-09T00:56:26.692Z,97.1
2019-02-09T01:01:26.397Z,97.3
2019-02-09T01:06:26.737Z,96.9
2019-02-09T01:11:26.492Z,96
2019-02-09T01:16:26.419Z,95.7
2019-02-09T01:21:26.558Z,94.6
2019-02-09T01:26:26.683Z,94.4
2019-02-09T01:31:26.812Z,95.1
2019-02-09T01:36:26.447Z,94.7
2019-02-09T01:41:26.607Z,94.3
2019-02-09T01:46:26.692Z,94
2019-02-09T01:51:26.644Z,93.6
2019-02-09T01:56:26.395Z,93.7
2019-02-09T02:01:26.710Z,93.9
2019-02-09T02:06:26.634Z,93.6
2019-02-09T02:11:26.573Z,92.1
2019-02-09T02:16:26.475Z,91.6
2019-02-09T02:21:26.286Z,91.6
2019-02-09T02:26:26.663Z,89.8
2019-02-09T02:31:26.652Z,88.6
2019-02-09T02:36:26.530Z,88.9
2019-02-09T02:41:26.439Z,88.8
2019-02-09T02:46:26.238Z,88.9
2019-02-09T02:51:26.486Z,89
2019-02-09T02:56:26.430Z,90.3
2019-02-09T03:01:43.468Z,91.4
2019-02-09T03:06:26.401Z,90.8
2019-02-09T03:11:26.286Z,89.9
2019-02-09T03:16:26.261Z,90.6
2019-02-09T03:21:26.325Z,90.8
2019-02-09T03:26:26.579Z,91.2
2019-02-09T03:31:26.419Z,91.5
2019-02-09T03:36:26.448Z,91.3
2019-02-09T03:41:26.320Z,90.6
2019-02-09T03:46:26.217Z,89.9
2019-02-09T03:51:26.455Z,89.6
2019-02-09T03:56:26.193Z,89.6
2019-02-09T04:01:26.209Z,89.2
2019-02-09T04:06:26.287Z,89.1
2019-02-09T04:11:26.484Z,89.4
2019-02-09T04:16:26.388Z,89.4
2019-02-09T04:21:26.540Z,89.4
2019-02-09T04:26:26.495Z,90.1
2019-02-09T04:31:26.228Z,90.2
2019-02-09T04:36:26.331Z,90.4
2019-02-09T04:41:26.222Z,89.9
2019-02-09T04:46:26.241Z,90.3
2019-02-09T04:51:26.075Z,90.4
2019-02-09T04:56:26.330Z,90
2019-02-09T05:01:26.367Z,89.3
2019-02-09T05:06:26.304Z,89.4
2019-02-09T05:11:26.122Z,89.2
2019-02-09T05:16:26.333Z,89.3
2019-02-09T05:21:26.312Z,89
2019-02-09T05:26:26.166Z,88.7
2019-02-09T05:31:26.426Z,88.4
2019-02-09T05:36:26.076Z,88.6
2019-02-09T05:41:26.312Z,89
2019-02-09T05:46:25.979Z,89
2019-02-09T05:51:26.160Z,89.5
2019-02-09T05:56:25.951Z,89.6
2019-02-09T06:01:31.829Z,89.6
2019-02-09T06:06:26.306Z,90.4
2019-02-09T06:11:26.094Z,90.6
2019-02-09T06:16:26.113Z,90.5
2019-02-09T06:21:26.191Z,90.2
2019-02-09T06:26:26.038Z,89.4
2019-02-09T06:31:26.020Z,89.2
2019-02-09T06:36:25.923Z,89.3
2019-02-09T06:41:25.902Z,88
2019-02-09T06:46:26.045Z,87.4
2019-02-09T06:51:25.955Z,86.5
2019-02-09T06:56:25.935Z,85.9
2019-02-09T07:01:26.090Z,84.5
2019-02-09T07:06:26.196Z,84.7
2019-02-09T07:11:26.084Z,84.8
2019-02-09T07:16:26.001Z,84.9
2019-02-09T07:21:26.013Z,85.6
2019-02-09T07:26:26.057Z,85.8
2019-02-09T07:31:26.332Z,86.2
2019-02-09T07:36:25.868Z,86.7
2019-02-09T07:41:26.022Z,87
2019-02-09T07:46:25.914Z,86.9
2019-02-09T07:51:26.147Z,87.5
2019-02-09T07:56:25.819Z,88.3
2019-02-09T08:01:25.830Z,88.5
2019-02-09T08:06:26.136Z,88.7
2019-02-09T08:11:26.144Z,88.7
2019-02-09T08:16:25.808Z,88.8
2019-02-09T08:21:25.942Z,88.8
2019-02-09T08:26:26.076Z,88.8
2019-02-09T08:31:25.724Z,88.5
2019-02-09T08:36:26.019Z,88.5
2019-02-09T08:41:26.003Z,87.7
2019-02-09T08:46:25.745Z,87.5
2019-02-09T08:51:26.086Z,86.5
2019-02-09T08:56:25.695Z,85.6
2019-02-09T09:01:26.133Z,84.8
2019-02-09T09:06:25.790Z,83.8
2019-02-09T09:11:25.837Z,84.2
2019-02-09T09:16:26.073Z,83.6
2019-02-09T09:21:25.892Z,82.9
2019-02-09T09:26:25.711Z,83
2019-02-09T09:31:25.860Z,81.7
2019-02-09T09:36:25.782Z,83
2019-02-09T09:41:25.835Z,83.5
2019-02-09T09:46:25.862Z,83.3
2019-02-09T09:51:25.802Z,82.3
2019-02-09T09:56:25.811Z,81.9
2019-02-09T10:01:25.704Z,82.1
2019-02-09T10:06:25.706Z,82.4
2019-02-09T10:11:25.798Z,81.2
2019-02-09T10:16:25.870Z,79.2
2019-02-09T10:21:25.679Z,79.6
2019-02-09T10:26:25.653Z,81.2
2019-02-09T10:31:25.801Z,81.3
2019-02-09T10:36:25.772Z,80.8
2019-02-09T10:41:25.793Z,79.2
2019-02-09T10:46:25.754Z,78.6
2019-02-09T10:51:25.655Z,78.5
2019-02-09T10:56:25.733Z,77.2
2019-02-09T11:01:25.771Z,75.8
2019-02-09T11:06:25.587Z,74.6
2019-02-09T11:11:25.706Z,73.1
2019-02-09T11:16:25.526Z,71.6
2019-02-09T11:21:25.579Z,72.2
2019-02-09T11:26:25.728Z,71.8
2019-02-09T11:31:25.756Z,72.2
2019-02-09T11:36:25.489Z,72.4
2019-02-09T11:41:25.818Z,71.3
2019-02-09T11:46:25.818Z,69.8
2019-02-09T11:51:25.525Z,71
2019-02-09T11:56:25.505Z,67.9
2019-02-09T12:01:25.624Z,69.4
2019-02-09T12:06:25.497Z,69.8
2019-02-09T12:11:25.549Z,70.5
2019-02-09T12:16:25.552Z,67.5
2019-02-09T12:21:25.566Z,68.9
2019-02-09T12:26:25.678Z,68.1
2019-02-09T12:31:25.626Z,66
2019-02-09T12:36:25.557Z,68.5
2019-02-09T12:41:25.556Z,68.9
2019-02-09T12:46:25.793Z,68.4
2019-02-09T12:51:25.613Z,68.9
2019-02-09T12:56:25.415Z,69.2
2019-02-09T13:01:25.397Z,68.6
2019-02-09T13:06:25.682Z,68.4
2019-02-09T13:11:25.544Z,67.9
2019-02-09T13:16:25.433Z,68.7
2019-02-09T13:21:25.361Z,69.1
2019-02-09T13:26:25.350Z,70.2
2019-02-09T13:31:25.437Z,70
2019-02-09T13:36:25.685Z,69.7
2019-02-09T13:41:25.607Z,69.1
2019-02-09T13:46:25.553Z,68.7
2019-02-09T13:51:25.313Z,70.5
2019-02-09T13:56:25.378Z,70.5
2019-02-09T14:01:25.343Z,71.6
2019-02-09T14:06:25.294Z,72
2019-02-09T14:11:25.317Z,71.3
2019-02-09T14:16:25.516Z,71.2
2019-02-09T14:21:25.515Z,71.6
2019-02-09T14:26:25.457Z,70.7
2019-02-09T14:31:25.275Z,70.3
2019-02-09T14:36:25.697Z,70.4
2019-02-09T14:41:25.362Z,69.6
2019-02-09T14:46:25.471Z,70.3
2019-02-09T14:51:25.271Z,70.2
2019-02-09T14:56:25.464Z,71.4
2019-02-09T15:01:25.340Z,71.5
2019-02-09T15:06:25.507Z,71.7
2019-02-09T15:11:25.508Z,72.1
2019-02-09T15:16:25.418Z,72.8
2019-02-09T15:21:25.364Z,73.2
2019-02-09T15:26:25.139Z,74.1
2019-02-09T15:31:25.258Z,74.5
2019-02-09T15:36:25.443Z,75
2019-02-09T15:41:25.309Z,75.2
2019-02-09T15:46:25.452Z,75.5
2019-02-09T15:51:25.195Z,75.5
2019-02-09T15:56:25.263Z,75.2
2019-02-09T16:01:25.469Z,74.9
2019-02-09T16:06:25.510Z,75.2
2019-02-09T16:11:25.332Z,76
2019-02-09T16:16:25.196Z,76.7
2019-02-09T16:21:25.405Z,78
2019-02-09T16:26:25.248Z,79
2019-02-09T16:31:25.372Z,80.2
2019-02-09T16:36:25.059Z,80.6
2019-02-09T16:41:25.333Z,80.5
2019-02-09T16:46:25.280Z,81
2019-02-09T16:51:25.171Z,80.8
2019-02-09T16:56:25.236Z,80.7
2019-02-09T17:01:25.163Z,80.5
2019-02-09T17:06:25.191Z,80.5
2019-02-09T17:11:25.103Z,80.6
2019-02-09T17:16:25.276Z,80.9
2019-02-09T17:21:25.311Z,80.9
2019-02-09T17:26:25.085Z,81.5
2019-02-09T17:31:25.032Z,82.2
2019-02-09T17:36:25.093Z,82.5
2019-02-09T17:41:25.124Z,82.5
2019-02-09T17:46:25.199Z,82.5
2019-02-09T17:51:25.249Z,82.4
2019-02-09T17:56:25.080Z,82
2019-02-09T18:01:25.384Z,82
2019-02-09T18:06:25.255Z,82.7
2019-02-09T18:11:25.030Z,83.2
2019-02-09T18:16:25.292Z,82.7
2019-02-09T18:21:25.085Z,83
2019-02-09T18:26:25.094Z,83
2019-02-09T18:31:24.869Z,83
2019-02-09T18:36:25.026Z,83.3
2019-02-09T18:41:24.947Z,83.5
2019-02-09T18:46:24.870Z,83.4
2019-02-09T18:51:24.985Z,82.8
2019-02-09T18:56:25.243Z,82.6
2019-02-09T19:01:24.976Z,82.5
2019-02-09T19:06:25.066Z,82.1
2019-02-09T19:11:24.870Z,82.4
2019-02-09T19:16:24.886Z,82.5
2019-02-09T19:21:25.210Z,82.8
2019-02-09T19:26:24.844Z,83.3
2019-02-09T19:31:25.178Z,84.2
2019-02-09T19:36:25.004Z,84.4
2019-02-09T19:41:25.204Z,84.8
2019-02-09T19:46:25.163Z,85.3
2019-02-09T19:51:25.121Z,85.5
2019-02-09T19:56:25.167Z,85.7
2019-02-09T20:01:24.927Z,86.2
2019-02-09T20:06:24.998Z,86.6
2019-02-09T20:11:25.040Z,86.5
2019-02-09T20:16:25.206Z,86.4
2019-02-09T20:21:24.821Z,86.4
2019-02-09T20:26:25.057Z,86.4
2019-02-09T20:31:24.740Z,86.4
2019-02-09T20:36:24.890Z,86.6
2019-02-09T20:41:25.011Z,86.7
2019-02-09T20:46:24.892Z,86.2
2019-02-09T20:51:25.075Z,85.9
2019-02-09T20:56:24.913Z,86.2
2019-02-09T21:01:24.745Z,86
2019-02-09T21:06:24.823Z,85.9
2019-02-09T21:11:25.048Z,85.8
2019-02-09T21:16:24.972Z,85.8
2019-02-09T21:21:24.881Z,86
2019-02-09T21:26:24.774Z,86.1
2019-02-09T21:31:24.933Z,85.6
2019-02-09T21:36:25.003Z,85.9
2019-02-09T21:41:24.988Z,85.4
2019-02-09T21:46:24.831Z,85.3
2019-02-09T21:51:25.040Z,84.8
2019-02-09T21:56:24.683Z,84.4
2019-02-09T22:01:24.785Z,83.8
2019-02-09T22:06:24.819Z,83.1
2019-02-09T22:11:24.931Z,82.5
2019-02-09T22:16:24.760Z,82.6
2019-02-09T22:21:24.945Z,82.3
2019-02-09T22:26:24.574Z,81.8
2019-02-09T22:31:24.722Z,82
2019-02-09T22:36:24.535Z,81.3
2019-02-09T22:41:24.674Z,81.6
2019-02-09T22:46:24.601Z,81.2
2019-02-09T22:51:24.873Z,81.5
2019-02-09T22:56:24.647Z,81.2
2019-02-09T23:01:24.500Z,80.6
2019-02-09T23:06:24.576Z,80.6
2019-02-09T23:11:24.853Z,80.4
2019-02-09T23:16:24.550Z,80.4
2019-02-09T23:21:24.844Z,80.4
2019-02-09T23:26:24.503Z,80.3
2019-02-09T23:31:24.822Z,80.7
2019-02-09T23:36:24.867Z,80.9
2019-02-09T23:41:24.725Z,81.4
2019-02-09T23:46:24.850Z,81.4
2019-02-09T23:51:24.550Z,81.6
2019-02-09T23:56:24.576Z,82
